createdAt,value
2023-05-15T00:00:38.802Z,12.10
2023-05-15T00:01:39.350Z,8.00
2023-05-15T00:02:38.990Z,9.90
2023-05-15T00:03:39.713Z,9.70
2023-05-15T00:04:39.234Z,9.40
2023-05-15T00:05:38.638Z,9.50
2023-05-15T00:06:39.252Z,10.10
2023-05-15T00:07:38.917Z,7.30
2023-05-15T00:08:39.441Z,11.40
2023-05-15T00:09:38.584Z,10.00
2023-05-15T00:10:40.917Z,7.50
2023-05-15T00:11:38.940Z,9.20
2023-05-15T00:12:40.532Z,6.40
2023-05-15T00:13:39.215Z,10.40
2023-05-15T00:14:40.107Z,10.00
2023-05-15T00:15:39.228Z,9.50
2023-05-15T00:16:39.443Z,7.90
2023-05-15T00:17:40.120Z,13.10
2023-05-15T00:18:38.551Z,7.70
2023-05-15T00:19:38.720Z,10.00
2023-05-15T00:20:39.648Z,8.70
2023-05-15T00:21:39.016Z,6.50
2023-05-15T00:22:39.291Z,10.70
2023-05-15T00:23:39.194Z,8.70
2023-05-15T00:24:39.177Z,8.60
2023-05-15T00:25:38.520Z,6.60
2023-05-15T00:26:39.744Z,8.80
2023-05-15T00:27:38.269Z,7.50
2023-05-15T00:28:39.256Z,9.10
2023-05-15T00:29:38.285Z,6.80
2023-05-15T00:30:38.798Z,8.60
2023-05-15T00:31:38.882Z,8.30
2023-05-15T00:32:38.896Z,8.60
2023-05-15T00:33:39.267Z,7.90
2023-05-15T00:34:38.463Z,10.20
2023-05-15T00:35:38.982Z,7.10
2023-05-15T00:36:38.398Z,9.00
2023-05-15T00:37:38.645Z,8.50
2023-05-15T00:38:39.174Z,12.80
2023-05-15T00:39:38.606Z,9.40
2023-05-15T00:40:38.247Z,6.90
2023-05-15T00:41:39.504Z,8.80
2023-05-15T00:42:38.138Z,7.70
2023-05-15T00:43:38.891Z,13.10
2023-05-15T00:44:39.104Z,5.60
2023-05-15T00:45:38.019Z,8.30
2023-05-15T00:46:38.579Z,8.50
2023-05-15T00:47:40.043Z,8.80
2023-05-15T00:48:38.260Z,9.20
2023-05-15T00:49:38.020Z,12.30
2023-05-15T00:50:37.985Z,9.50
2023-05-15T00:51:38.015Z,8.80
2023-05-15T00:52:37.987Z,7.40
2023-05-15T00:53:37.970Z,7.40
2023-05-15T00:54:37.976Z,8.70
2023-05-15T00:55:37.965Z,8.30
2023-05-15T00:56:37.980Z,7.60
2023-05-15T00:57:37.915Z,10.50
2023-05-15T00:58:37.993Z,7.90
2023-05-15T00:59:37.911Z,7.60
2023-05-15T01:00:38.948Z,10.50
2023-05-15T01:01:37.934Z,6.70
2023-05-15T01:02:37.926Z,9.90
2023-05-15T01:03:37.980Z,8.30
2023-05-15T01:04:37.827Z,8.90
2023-05-15T01:05:37.826Z,7.20
2023-05-15T01:06:38.858Z,8.40
2023-05-15T01:07:37.858Z,8.00
2023-05-15T01:08:38.790Z,9.80
2023-05-15T01:09:37.780Z,8.40
2023-05-15T01:10:37.779Z,6.50
2023-05-15T01:11:37.775Z,8.30
2023-05-15T01:12:37.737Z,10.70
2023-05-15T01:13:37.773Z,11.90
2023-05-15T01:14:37.745Z,12.20
2023-05-15T01:15:37.732Z,11.50
2023-05-15T01:16:37.721Z,10.50
2023-05-15T01:17:37.734Z,10.30
2023-05-15T01:18:37.846Z,11.90
2023-05-15T01:19:37.774Z,12.40
2023-05-15T01:20:37.698Z,13.30
2023-05-15T01:21:37.688Z,8.20
2023-05-15T01:22:37.631Z,12.50
2023-05-15T01:23:37.670Z,13.70
2023-05-15T01:24:37.634Z,10.60
2023-05-15T01:25:37.642Z,9.90
2023-05-15T01:26:37.623Z,14.70
2023-05-15T01:27:37.613Z,14.10
2023-05-15T01:28:37.573Z,10.40
2023-05-15T01:29:37.575Z,10.70
2023-05-15T01:30:37.591Z,9.60
2023-05-15T01:31:37.555Z,6.60
2023-05-15T01:32:37.573Z,7.20
2023-05-15T01:33:37.503Z,14.60
2023-05-15T01:34:37.487Z,7.90
2023-05-15T01:35:37.535Z,13.30
2023-05-15T01:36:37.518Z,8.60
2023-05-15T01:37:37.471Z,9.70
2023-05-15T01:38:37.522Z,14.20
2023-05-15T01:39:37.588Z,10.10
2023-05-15T01:40:37.530Z,13.60
2023-05-15T01:41:37.437Z,10.50
2023-05-15T01:42:37.415Z,10.70
2023-05-15T01:43:37.413Z,10.00
2023-05-15T01:44:37.376Z,8.60
2023-05-15T01:45:37.393Z,12.70
2023-05-15T01:46:37.691Z,8.60
2023-05-15T01:47:37.382Z,11.50
2023-05-15T01:48:37.380Z,8.90
2023-05-15T01:49:37.353Z,14.40
2023-05-15T01:50:37.348Z,13.60
2023-05-15T01:51:37.315Z,9.50
2023-05-15T01:52:37.321Z,17.10
2023-05-15T01:53:37.295Z,12.30
2023-05-15T01:54:37.264Z,12.10
2023-05-15T01:55:37.246Z,9.30
2023-05-15T01:56:37.319Z,10.00
2023-05-15T01:57:37.266Z,10.00
2023-05-15T01:58:37.260Z,10.60
2023-05-15T01:59:37.232Z,9.50
2023-05-15T02:00:37.316Z,11.90
2023-05-15T02:01:37.242Z,10.00
2023-05-15T02:02:37.292Z,8.60
2023-05-15T02:03:37.306Z,9.60
2023-05-15T02:04:37.212Z,13.80
2023-05-15T02:05:37.195Z,8.10
2023-05-15T02:06:37.146Z,11.00
2023-05-15T02:07:37.108Z,12.60
2023-05-15T02:08:37.114Z,9.50
2023-05-15T02:09:37.174Z,12.10
2023-05-15T02:10:37.103Z,9.80
2023-05-15T02:11:37.060Z,11.20
2023-05-15T02:12:37.061Z,12.30
2023-05-15T02:13:37.099Z,11.30
2023-05-15T02:14:37.068Z,9.10
2023-05-15T02:15:37.052Z,11.40
2023-05-15T02:16:37.135Z,11.10
2023-05-15T02:17:37.034Z,10.80
2023-05-15T02:18:37.073Z,13.80
2023-05-15T02:19:37.022Z,12.80
2023-05-15T02:20:37.012Z,10.70
2023-05-15T02:21:37.008Z,13.20
2023-05-15T02:22:37.025Z,10.40
2023-05-15T02:23:36.960Z,12.80
2023-05-15T02:24:36.927Z,9.50
2023-05-15T02:25:37.836Z,15.40
2023-05-15T02:26:36.903Z,8.30
2023-05-15T02:27:36.996Z,10.00
2023-05-15T02:28:36.890Z,12.20
2023-05-15T02:29:36.916Z,11.00
2023-05-15T02:30:36.873Z,10.50
2023-05-15T02:31:36.974Z,12.90
2023-05-15T02:32:36.853Z,13.50
2023-05-15T02:33:36.838Z,10.00
2023-05-15T02:34:36.844Z,12.10
2023-05-15T02:35:36.821Z,12.60
2023-05-15T02:36:36.795Z,12.50
2023-05-15T02:37:36.815Z,13.00
2023-05-15T02:38:36.748Z,8.30
2023-05-15T02:39:36.754Z,9.60
2023-05-15T02:40:36.744Z,14.90
2023-05-15T02:41:36.766Z,12.00
2023-05-15T02:42:36.760Z,11.30
2023-05-15T02:43:36.709Z,14.70
2023-05-15T02:44:36.736Z,11.30
2023-05-15T02:45:36.753Z,13.90
2023-05-15T02:46:36.674Z,11.70
2023-05-15T02:47:36.679Z,12.20
2023-05-15T02:48:36.640Z,13.20
2023-05-15T02:49:37.239Z,11.50
2023-05-15T02:50:36.599Z,9.40
2023-05-15T02:51:36.594Z,13.20
2023-05-15T02:52:36.682Z,14.20
2023-05-15T02:53:36.577Z,14.60
2023-05-15T02:54:36.609Z,14.90
2023-05-15T02:55:36.601Z,16.50
2023-05-15T02:56:36.595Z,14.50
2023-05-15T02:57:36.588Z,13.80
2023-05-15T02:58:36.554Z,10.30
2023-05-15T02:59:36.613Z,13.60
2023-05-15T03:00:36.518Z,10.50
2023-05-15T03:01:36.511Z,12.00
2023-05-15T03:02:36.544Z,9.00
2023-05-15T03:03:36.805Z,8.00
2023-05-15T03:04:36.547Z,8.70
2023-05-15T03:05:36.459Z,9.30
2023-05-15T03:06:36.435Z,8.30
2023-05-15T03:07:37.268Z,9.20
2023-05-15T03:08:36.484Z,7.50
2023-05-15T03:09:36.432Z,8.30
2023-05-15T03:10:36.437Z,10.90
2023-05-15T03:11:36.391Z,7.50
2023-05-15T03:12:36.358Z,9.90
2023-05-15T03:13:36.349Z,11.60
2023-05-15T03:14:36.366Z,7.90
2023-05-15T03:15:36.313Z,12.40
2023-05-15T03:16:36.389Z,9.00
2023-05-15T03:17:36.461Z,9.30
2023-05-15T03:18:37.148Z,10.80
2023-05-15T03:19:36.281Z,9.10
2023-05-15T03:20:36.282Z,9.60
2023-05-15T03:21:36.297Z,8.60
2023-05-15T03:22:36.280Z,11.60
2023-05-15T03:23:37.869Z,13.60
2023-05-15T03:24:37.217Z,13.40
2023-05-15T03:25:36.202Z,15.40
2023-05-15T03:26:36.274Z,9.30
2023-05-15T03:27:36.218Z,12.60
2023-05-15T03:28:36.196Z,14.30
2023-05-15T03:29:36.181Z,20.60
2023-05-15T03:30:36.205Z,22.00
2023-05-15T03:31:36.245Z,26.70
2023-05-15T03:32:37.329Z,18.70
2023-05-15T03:33:36.351Z,25.20
2023-05-15T03:34:36.199Z,17.30
2023-05-15T03:35:36.254Z,20.60
2023-05-15T03:36:36.203Z,23.70
2023-05-15T03:37:36.186Z,22.40
2023-05-15T03:38:37.061Z,19.20
2023-05-15T03:39:36.202Z,18.70
2023-05-15T03:40:36.259Z,16.90
2023-05-15T03:41:36.381Z,15.30
2023-05-15T03:42:36.232Z,15.90
2023-05-15T03:43:36.241Z,13.20
2023-05-15T03:44:36.088Z,14.60
2023-05-15T03:45:37.214Z,16.30
2023-05-15T03:46:36.204Z,15.20
2023-05-15T03:47:36.077Z,15.80
2023-05-15T03:48:37.217Z,16.30
2023-05-15T03:49:36.008Z,14.80
2023-05-15T03:50:36.251Z,19.80
2023-05-15T03:51:36.945Z,21.30
2023-05-15T03:52:35.912Z,18.30
2023-05-15T03:53:35.933Z,22.00
2023-05-15T03:54:35.876Z,19.50
2023-05-15T03:55:35.881Z,14.80
2023-05-15T03:56:35.956Z,15.80
2023-05-15T03:57:35.855Z,12.20
2023-05-15T03:58:35.851Z,12.50
2023-05-15T03:59:35.864Z,16.20
2023-05-15T04:00:35.830Z,16.40
2023-05-15T04:01:46.685Z,16.10
2023-05-15T04:02:37.871Z,14.80
2023-05-15T04:03:35.865Z,20.40
2023-05-15T04:04:35.749Z,18.20
2023-05-15T04:05:35.865Z,17.70
2023-05-15T04:06:35.832Z,19.60
2023-05-15T04:07:35.756Z,15.10
2023-05-15T04:08:35.799Z,16.10
2023-05-15T04:09:35.764Z,16.10
2023-05-15T04:10:35.697Z,14.10
2023-05-15T04:11:35.722Z,14.20
2023-05-15T04:12:35.748Z,19.00
2023-05-15T04:13:35.752Z,17.00
2023-05-15T04:14:36.295Z,14.30
2023-05-15T04:15:35.710Z,17.70
2023-05-15T04:16:35.805Z,18.50
2023-05-15T04:17:35.785Z,15.10
2023-05-15T04:18:35.707Z,11.80
2023-05-15T04:19:35.793Z,20.20
2023-05-15T04:20:35.690Z,17.70
2023-05-15T04:21:35.630Z,19.80
2023-05-15T04:22:35.564Z,12.80
2023-05-15T04:23:35.710Z,13.10
2023-05-15T04:24:35.633Z,14.00
2023-05-15T04:25:35.659Z,14.50
2023-05-15T04:26:35.730Z,11.90
2023-05-15T04:27:35.630Z,18.20
2023-05-15T04:28:35.622Z,16.90
2023-05-15T04:29:35.592Z,17.50
2023-05-15T04:30:35.606Z,12.70
2023-05-15T04:31:35.605Z,14.20
2023-05-15T04:32:35.611Z,13.20
2023-05-15T04:33:35.473Z,15.00
2023-05-15T04:34:35.485Z,18.00
2023-05-15T04:35:35.577Z,14.00
2023-05-15T04:36:35.481Z,16.70
2023-05-15T04:37:35.544Z,11.70
2023-05-15T04:38:35.391Z,15.10
2023-05-15T04:39:37.093Z,14.70
2023-05-15T04:40:35.553Z,14.70
2023-05-15T04:41:35.493Z,12.20
2023-05-15T04:42:35.441Z,14.70
2023-05-15T04:43:35.362Z,13.80
2023-05-15T04:44:35.334Z,13.60
2023-05-15T04:45:35.475Z,13.70
2023-05-15T04:46:35.523Z,14.10
2023-05-15T04:47:35.892Z,17.10
2023-05-15T04:48:35.411Z,13.20
2023-05-15T04:49:35.386Z,13.60
2023-05-15T04:50:35.416Z,18.30
2023-05-15T04:51:35.373Z,20.10
2023-05-15T04:52:35.366Z,13.10
2023-05-15T04:53:35.322Z,15.10
2023-05-15T04:54:35.254Z,14.00
2023-05-15T04:55:35.250Z,13.20
2023-05-15T04:56:35.268Z,14.60
2023-05-15T04:57:35.599Z,17.20
2023-05-15T04:58:36.230Z,14.90
2023-05-15T04:59:35.332Z,21.00
2023-05-15T05:00:35.245Z,15.40
2023-05-15T05:01:35.838Z,12.10
2023-05-15T05:02:35.414Z,14.20
2023-05-15T05:03:35.216Z,17.70
2023-05-15T05:04:35.814Z,16.30
2023-05-15T05:05:35.236Z,18.50
2023-05-15T05:06:35.116Z,18.60
2023-05-15T05:07:35.145Z,18.60
2023-05-15T05:08:35.130Z,17.70
2023-05-15T05:09:36.132Z,20.00
2023-05-15T05:10:35.095Z,15.80
2023-05-15T05:11:35.073Z,15.40
2023-05-15T05:12:35.082Z,17.10
2023-05-15T05:13:35.105Z,16.10
2023-05-15T05:14:35.003Z,16.60
2023-05-15T05:15:34.983Z,15.00
2023-05-15T05:16:35.135Z,17.70
2023-05-15T05:17:35.082Z,15.90
2023-05-15T05:18:35.183Z,14.10
2023-05-15T05:19:34.977Z,16.20
2023-05-15T05:20:35.135Z,15.80
2023-05-15T05:21:40.559Z,20.30
2023-05-15T05:22:35.013Z,14.40
2023-05-15T05:23:34.965Z,13.20
2023-05-15T05:24:35.152Z,17.10
2023-05-15T05:25:34.938Z,12.90
2023-05-15T05:26:34.930Z,15.00
2023-05-15T05:27:34.853Z,14.40
2023-05-15T05:28:34.975Z,18.40
2023-05-15T05:29:34.935Z,16.40
2023-05-15T05:30:34.915Z,17.50
2023-05-15T05:31:35.880Z,13.50
2023-05-15T05:32:34.887Z,10.90
2023-05-15T05:33:34.872Z,15.30
2023-05-15T05:34:35.006Z,12.00
2023-05-15T05:35:34.848Z,13.80
2023-05-15T05:36:34.758Z,12.40
2023-05-15T05:37:34.930Z,13.90
2023-05-15T05:38:34.799Z,13.80
2023-05-15T05:39:34.810Z,14.70
2023-05-15T05:40:34.800Z,12.40
2023-05-15T05:41:34.800Z,14.50
2023-05-15T05:42:34.735Z,14.50
2023-05-15T05:43:34.680Z,15.60
2023-05-15T05:44:34.854Z,13.50
2023-05-15T05:45:34.749Z,11.80
2023-05-15T05:46:34.749Z,11.20
2023-05-15T05:47:34.762Z,12.50
2023-05-15T05:48:34.871Z,11.40
2023-05-15T05:49:34.657Z,15.70
2023-05-15T05:50:34.699Z,15.70
2023-05-15T05:51:34.744Z,10.50
2023-05-15T05:52:34.645Z,13.20
2023-05-15T05:53:34.661Z,11.70
2023-05-15T05:54:34.621Z,11.30
2023-05-15T05:55:34.626Z,14.20
2023-05-15T05:56:34.602Z,10.80
2023-05-15T05:57:34.602Z,11.60
2023-05-15T05:58:34.557Z,13.20
2023-05-15T05:59:35.186Z,14.10
2023-05-15T06:00:34.530Z,13.00
2023-05-15T06:01:34.761Z,12.20
2023-05-15T06:02:34.662Z,12.50
2023-05-15T06:03:34.777Z,12.30
2023-05-15T06:04:34.841Z,10.80
2023-05-15T06:05:34.505Z,11.50
2023-05-15T06:06:34.558Z,12.60
2023-05-15T06:07:34.466Z,13.30
2023-05-15T06:08:34.549Z,13.60
2023-05-15T06:09:34.507Z,12.90
2023-05-15T06:10:34.430Z,10.30
2023-05-15T06:11:34.491Z,13.80
2023-05-15T06:12:34.489Z,13.60
2023-05-15T06:13:34.343Z,14.30
2023-05-15T06:14:34.475Z,11.60
2023-05-15T06:15:34.388Z,12.50
2023-05-15T06:16:34.391Z,12.00
2023-05-15T06:17:34.370Z,12.70
2023-05-15T06:18:34.452Z,11.30
2023-05-15T06:19:34.390Z,11.00
2023-05-15T06:20:34.347Z,12.10
2023-05-15T06:21:34.324Z,12.40
2023-05-15T06:22:34.728Z,15.80
2023-05-15T06:23:34.287Z,11.30
2023-05-15T06:24:34.314Z,11.80
2023-05-15T06:25:34.225Z,10.90
2023-05-15T06:26:34.192Z,9.40
2023-05-15T06:27:34.264Z,11.90
2023-05-15T06:28:34.881Z,11.40
2023-05-15T06:29:34.223Z,13.10
2023-05-15T06:30:34.202Z,10.50
2023-05-15T06:31:34.173Z,12.20
2023-05-15T06:32:34.608Z,11.70
2023-05-15T06:33:35.135Z,12.70
2023-05-15T06:34:34.185Z,12.80
2023-05-15T06:35:34.097Z,12.40
2023-05-15T06:36:34.087Z,13.20
2023-05-15T06:37:34.133Z,10.10
2023-05-15T06:38:34.086Z,9.80
2023-05-15T06:39:34.058Z,11.30
2023-05-15T06:40:34.046Z,10.30
2023-05-15T06:41:34.022Z,14.30
2023-05-15T06:42:34.079Z,12.70
2023-05-15T06:43:34.646Z,14.00
2023-05-15T06:44:34.098Z,12.60
2023-05-15T06:45:34.024Z,10.50
2023-05-15T06:46:34.173Z,12.10
2023-05-15T06:47:34.011Z,11.00
2023-05-15T06:48:34.064Z,11.10
2023-05-15T06:49:33.958Z,11.80
2023-05-15T06:50:34.047Z,13.80
2023-05-15T06:51:33.940Z,13.10
2023-05-15T06:52:33.980Z,10.50
2023-05-15T06:53:33.915Z,11.20
2023-05-15T06:54:33.863Z,11.00
2023-05-15T06:55:33.859Z,10.70
2023-05-15T06:56:33.844Z,11.80
2023-05-15T06:57:33.939Z,12.40
2023-05-15T06:58:33.899Z,11.60
2023-05-15T06:59:33.828Z,8.90
2023-05-15T07:00:33.884Z,9.60
2023-05-15T07:01:33.817Z,11.10
2023-05-15T07:02:33.792Z,15.70
2023-05-15T07:03:33.818Z,12.40
2023-05-15T07:04:33.853Z,11.30
2023-05-15T07:05:35.191Z,11.90
2023-05-15T07:06:33.752Z,11.30
2023-05-15T07:07:33.745Z,15.10
2023-05-15T07:08:33.803Z,11.70
2023-05-15T07:09:33.853Z,14.20
2023-05-15T07:10:33.704Z,16.70
2023-05-15T07:11:33.992Z,9.90
2023-05-15T07:12:33.673Z,11.40
2023-05-15T07:13:33.703Z,11.10
2023-05-15T07:14:33.633Z,9.00
2023-05-15T07:15:33.641Z,11.30
2023-05-15T07:16:33.634Z,12.50
2023-05-15T07:17:33.752Z,10.90
2023-05-15T07:18:33.763Z,10.40
2023-05-15T07:19:33.891Z,10.90
2023-05-15T07:20:35.148Z,12.80
2023-05-15T07:21:33.600Z,11.50
2023-05-15T07:22:38.661Z,15.50
2023-05-15T07:23:34.617Z,11.20
2023-05-15T07:24:33.602Z,12.20
2023-05-15T07:25:33.545Z,11.20
2023-05-15T07:26:40.725Z,10.70
2023-05-15T07:27:35.560Z,16.30
2023-05-15T07:28:33.493Z,14.40
2023-05-15T07:29:33.622Z,11.40
2023-05-15T07:30:33.484Z,11.50
2023-05-15T07:31:33.619Z,13.10
2023-05-15T07:32:33.543Z,10.90
2023-05-15T07:33:33.458Z,11.20
2023-05-15T07:34:33.448Z,13.40
2023-05-15T07:35:34.401Z,12.00
2023-05-15T07:36:33.406Z,11.30
2023-05-15T07:37:33.454Z,12.70
2023-05-15T07:38:33.361Z,13.00
2023-05-15T07:39:33.607Z,12.10
2023-05-15T07:40:33.435Z,12.80
2023-05-15T07:41:33.989Z,14.30
2023-05-15T07:42:33.459Z,12.00
2023-05-15T07:43:33.398Z,12.00
2023-05-15T07:44:33.348Z,10.70
2023-05-15T07:45:33.347Z,10.60
2023-05-15T07:46:33.374Z,11.60
2023-05-15T07:47:33.362Z,16.10
2023-05-15T07:48:33.317Z,12.00
2023-05-15T07:49:33.296Z,13.70
2023-05-15T07:50:33.252Z,17.00
2023-05-15T07:51:33.261Z,11.40
2023-05-15T07:52:33.213Z,12.90
2023-05-15T07:53:33.267Z,10.40
2023-05-15T07:54:34.165Z,10.60
2023-05-15T07:55:33.205Z,17.50
2023-05-15T07:56:33.317Z,11.80
2023-05-15T07:57:33.118Z,12.70
2023-05-15T07:58:33.157Z,10.50
2023-05-15T07:59:33.268Z,10.50
2023-05-15T08:00:33.177Z,12.20
2023-05-15T08:01:33.230Z,13.40
2023-05-15T08:02:33.309Z,12.30
2023-05-15T08:03:33.317Z,9.80
2023-05-15T08:04:33.237Z,11.80
2023-05-15T08:05:33.093Z,9.40
2023-05-15T08:06:33.109Z,10.60
2023-05-15T08:07:34.177Z,12.70
2023-05-15T08:08:33.114Z,13.30
2023-05-15T08:09:33.029Z,10.70
2023-05-15T08:10:33.059Z,12.90
2023-05-15T08:11:33.017Z,10.60
2023-05-15T08:12:33.014Z,14.10
2023-05-15T08:15:24.267Z,11.60
2023-05-15T08:16:25.100Z,13.40
2023-05-15T08:17:25.121Z,13.40
2023-05-15T08:18:25.139Z,10.70
2023-05-15T08:19:25.067Z,14.30
2023-05-15T08:20:25.037Z,10.20
2023-05-15T08:21:24.966Z,11.80
2023-05-15T08:22:25.014Z,12.70
2023-05-15T08:23:25.034Z,9.80
2023-05-15T08:24:24.956Z,10.00
2023-05-15T08:25:25.256Z,13.40
2023-05-15T08:26:24.975Z,15.70
2023-05-15T08:27:24.990Z,10.40
2023-05-15T08:28:24.978Z,11.70
2023-05-15T08:29:24.941Z,13.50
2023-05-15T08:30:24.906Z,15.50
2023-05-15T08:31:25.034Z,16.20
2023-05-15T08:32:24.948Z,12.50
2023-05-15T08:33:24.868Z,11.40
2023-05-15T08:34:24.866Z,13.80
2023-05-15T08:35:25.155Z,10.00
2023-05-15T08:36:24.878Z,11.40
2023-05-15T08:37:24.845Z,10.70
2023-05-15T08:38:24.812Z,13.80
2023-05-15T08:39:24.774Z,12.50
2023-05-15T08:40:38.475Z,16.40
2023-05-15T08:41:39.198Z,11.80
2023-05-15T08:42:26.777Z,15.80
2023-05-15T08:43:24.761Z,10.10
2023-05-15T08:44:24.727Z,10.10
2023-05-15T08:45:24.994Z,10.40
2023-05-15T08:46:24.771Z,13.80
2023-05-15T08:47:25.744Z,12.80
2023-05-15T08:48:24.774Z,11.80
2023-05-15T08:49:24.707Z,16.70
2023-05-15T08:50:24.814Z,10.30
2023-05-15T08:51:24.691Z,14.20
2023-05-15T08:52:24.709Z,15.20
2023-05-15T08:53:24.664Z,13.10
2023-05-15T08:54:24.660Z,13.50
2023-05-15T08:55:24.986Z,14.60
2023-05-15T08:56:24.604Z,12.30
2023-05-15T08:57:24.630Z,16.50
2023-05-15T08:58:24.598Z,10.40
2023-05-15T08:59:25.144Z,11.70
2023-05-15T09:00:24.558Z,10.10
2023-05-15T09:01:24.570Z,13.40
2023-05-15T09:02:24.625Z,11.10
2023-05-15T09:03:24.688Z,12.70
2023-05-15T09:04:24.518Z,12.00
2023-05-15T09:05:24.744Z,9.20
2023-05-15T09:06:24.504Z,12.20
2023-05-15T09:07:24.525Z,10.00
2023-05-15T09:08:24.470Z,12.80
2023-05-15T09:09:24.468Z,10.10
2023-05-15T09:10:24.459Z,14.90
2023-05-15T09:11:24.473Z,11.70
2023-05-15T09:12:24.608Z,12.90
2023-05-15T09:13:24.433Z,11.60
2023-05-15T09:14:24.458Z,12.70
2023-05-15T09:15:24.582Z,13.40
2023-05-15T09:16:24.525Z,17.00
2023-05-15T09:17:24.422Z,16.50
2023-05-15T09:18:24.411Z,14.10
2023-05-15T09:19:24.390Z,16.10
2023-05-15T09:20:24.364Z,14.70
2023-05-15T09:21:24.391Z,14.70
2023-05-15T09:22:24.385Z,14.70
2023-05-15T09:23:24.312Z,11.60
2023-05-15T09:24:24.296Z,10.70
2023-05-15T09:25:24.532Z,12.30
2023-05-15T09:26:24.276Z,14.60
2023-05-15T09:27:24.284Z,11.40
2023-05-15T09:28:24.283Z,12.80
2023-05-15T09:29:24.267Z,15.80
2023-05-15T09:30:24.243Z,16.00
2023-05-15T09:31:24.285Z,14.50
2023-05-15T09:32:24.272Z,18.20
2023-05-15T09:33:24.260Z,16.10
2023-05-15T09:34:24.267Z,10.30
2023-05-15T09:35:25.300Z,11.20
2023-05-15T09:36:24.239Z,14.90
2023-05-15T09:37:25.083Z,13.20
2023-05-15T09:38:24.197Z,12.50
2023-05-15T09:39:24.156Z,17.80
2023-05-15T09:40:24.193Z,13.00
2023-05-15T09:41:24.277Z,11.20
2023-05-15T09:42:24.158Z,15.20
2023-05-15T09:43:24.119Z,16.20
2023-05-15T09:44:24.091Z,10.70
2023-05-15T09:45:24.369Z,20.20
2023-05-15T09:46:24.232Z,16.80
2023-05-15T09:47:24.229Z,12.80
2023-05-15T09:48:24.613Z,12.00
2023-05-15T09:49:24.105Z,11.50
2023-05-15T09:50:24.030Z,15.20
2023-05-15T09:51:25.104Z,18.30
2023-05-15T09:52:24.041Z,12.90
2023-05-15T09:53:24.603Z,13.50
2023-05-15T09:54:24.023Z,11.40
2023-05-15T09:55:24.135Z,11.30
2023-05-15T09:56:23.981Z,16.60
2023-05-15T09:57:24.002Z,9.80
2023-05-15T09:58:23.944Z,13.20
2023-05-15T09:59:24.014Z,13.80
2023-05-15T10:00:24.432Z,13.00
2023-05-15T10:01:23.966Z,8.30
2023-05-15T10:02:23.899Z,11.00
2023-05-15T10:03:23.912Z,9.90
2023-05-15T10:04:23.960Z,9.50
2023-05-15T10:05:35.363Z,8.50
2023-05-15T10:06:25.924Z,8.10
2023-05-15T10:07:23.846Z,9.10
2023-05-15T10:08:23.891Z,8.40
2023-05-15T10:09:23.879Z,10.50
2023-05-15T10:10:23.960Z,8.00
2023-05-15T10:11:23.836Z,8.60
2023-05-15T10:12:23.795Z,6.20
2023-05-15T10:13:23.891Z,6.90
2023-05-15T10:14:23.818Z,9.60
2023-05-15T10:15:23.796Z,8.10
2023-05-15T10:16:23.810Z,7.70
2023-05-15T10:17:23.757Z,7.80
2023-05-15T10:18:23.746Z,8.70
2023-05-15T10:19:23.959Z,13.30
2023-05-15T10:20:23.853Z,10.10
2023-05-15T10:21:23.699Z,7.90
2023-05-15T10:22:23.692Z,13.10
2023-05-15T10:23:23.694Z,8.20
2023-05-15T10:24:23.678Z,10.90
2023-05-15T10:25:23.705Z,10.20
2023-05-15T10:26:24.643Z,8.50
2023-05-15T10:27:23.652Z,9.20
2023-05-15T10:28:23.690Z,11.30
2023-05-15T10:29:23.635Z,7.50
2023-05-15T10:30:23.902Z,10.40
2023-05-15T10:31:23.652Z,8.20
2023-05-15T10:32:23.599Z,7.90
2023-05-15T10:33:23.589Z,11.90
2023-05-15T10:34:23.540Z,11.10
2023-05-15T10:35:23.559Z,7.10
2023-05-15T10:36:23.601Z,8.70
2023-05-15T10:37:23.530Z,12.20
2023-05-15T10:38:23.536Z,7.50
2023-05-15T10:39:23.531Z,6.80
2023-05-15T10:40:23.723Z,10.30
2023-05-15T10:41:23.484Z,12.60
2023-05-15T10:42:23.460Z,9.50
2023-05-15T10:43:24.571Z,9.60
2023-05-15T10:44:23.492Z,10.20
2023-05-15T10:45:23.452Z,9.50
2023-05-15T10:46:23.467Z,9.70
2023-05-15T10:47:23.523Z,9.50
2023-05-15T10:48:23.565Z,12.40
2023-05-15T10:49:23.706Z,13.10
2023-05-15T10:50:23.547Z,11.10
2023-05-15T10:51:23.416Z,10.60
2023-05-15T10:52:23.380Z,11.30
2023-05-15T10:53:23.418Z,8.90
2023-05-15T10:54:23.340Z,12.30
2023-05-15T10:55:23.364Z,9.60
2023-05-15T10:56:23.398Z,7.80
2023-05-15T10:57:23.293Z,15.70
2023-05-15T10:58:23.314Z,9.20
2023-05-15T10:59:23.562Z,12.00
2023-05-15T11:00:23.571Z,11.70
2023-05-15T11:01:23.457Z,9.70
2023-05-15T11:02:23.282Z,9.40
2023-05-15T11:03:23.316Z,10.20
2023-05-15T11:04:23.342Z,7.90
2023-05-15T11:05:23.619Z,7.20
2023-05-15T11:06:23.216Z,11.20
2023-05-15T11:07:23.244Z,10.00
2023-05-15T11:08:23.199Z,6.90
2023-05-15T11:09:23.847Z,8.80
2023-05-15T11:10:23.254Z,8.70
2023-05-15T11:11:24.131Z,7.60
2023-05-15T11:12:23.137Z,11.20
2023-05-15T11:13:23.720Z,10.20
2023-05-15T11:14:23.107Z,7.50
2023-05-15T11:15:23.130Z,7.40
2023-05-15T11:16:23.156Z,9.20
2023-05-15T11:17:23.084Z,9.30
2023-05-15T11:18:23.136Z,9.20
2023-05-15T11:19:23.097Z,8.80
2023-05-15T11:20:23.108Z,6.40
2023-05-15T11:21:23.083Z,7.30
2023-05-15T11:22:23.059Z,9.30
2023-05-15T11:23:23.037Z,14.80
2023-05-15T11:24:23.034Z,8.20
2023-05-15T11:25:23.036Z,8.40
2023-05-15T11:26:22.961Z,7.80
2023-05-15T11:27:22.976Z,11.50
2023-05-15T11:28:23.008Z,7.00
2023-05-15T11:29:22.943Z,6.70
2023-05-15T11:30:23.091Z,9.60
2023-05-15T11:31:22.962Z,7.60
2023-05-15T11:32:22.968Z,9.60
2023-05-15T11:33:22.918Z,10.20
2023-05-15T11:34:22.890Z,7.20
2023-05-15T11:35:22.925Z,8.90
2023-05-15T11:36:22.877Z,9.80
2023-05-15T11:37:22.883Z,10.90
2023-05-15T11:38:22.911Z,9.30
2023-05-15T11:39:22.841Z,10.30
2023-05-15T11:40:22.828Z,11.70
2023-05-15T11:41:22.808Z,10.20
2023-05-15T11:42:22.777Z,11.60
2023-05-15T11:43:22.819Z,7.50
2023-05-15T11:44:22.918Z,12.40
2023-05-15T11:45:22.777Z,15.30
2023-05-15T11:46:22.836Z,11.20
2023-05-15T11:47:22.732Z,10.30
2023-05-15T11:48:22.846Z,14.60
2023-05-15T11:49:22.789Z,9.40
2023-05-15T11:50:23.030Z,7.70
2023-05-15T11:51:22.750Z,6.40
2023-05-15T11:52:22.686Z,7.00
2023-05-15T11:53:22.705Z,7.90
2023-05-15T11:54:22.757Z,7.90
2023-05-15T11:55:22.682Z,10.50
2023-05-15T11:56:22.725Z,9.20
2023-05-15T11:57:22.671Z,11.10
2023-05-15T11:58:22.749Z,9.80
2023-05-15T11:59:22.648Z,8.00
2023-05-15T12:00:22.808Z,9.60
2023-05-15T12:01:22.593Z,11.20
2023-05-15T12:02:22.621Z,8.80
2023-05-15T12:03:24.027Z,8.80
2023-05-15T12:04:22.738Z,8.70
2023-05-15T12:05:22.587Z,5.30
2023-05-15T12:06:22.542Z,9.70
2023-05-15T12:07:22.559Z,8.30
2023-05-15T12:08:22.730Z,8.20
2023-05-15T12:09:22.584Z,9.20
2023-05-15T12:10:22.579Z,6.80
2023-05-15T12:11:22.525Z,8.30
2023-05-15T12:12:22.499Z,6.50
2023-05-15T12:13:22.494Z,9.50
2023-05-15T12:14:22.564Z,9.20
2023-05-15T12:15:22.468Z,8.90
2023-05-15T12:16:22.538Z,9.40
2023-05-15T12:17:22.492Z,11.90
2023-05-15T12:18:22.475Z,7.10
2023-05-15T12:19:22.460Z,12.90
2023-05-15T12:20:22.453Z,10.60
2023-05-15T12:21:22.395Z,9.60
2023-05-15T12:22:22.414Z,9.70
2023-05-15T12:23:22.340Z,9.80
2023-05-15T12:24:22.417Z,9.20
2023-05-15T12:25:22.340Z,15.80
2023-05-15T12:26:22.343Z,9.30
2023-05-15T12:27:22.325Z,9.40
2023-05-15T12:28:22.416Z,12.10
2023-05-15T12:29:22.318Z,9.40
2023-05-15T12:30:22.501Z,7.50
2023-05-15T12:31:22.342Z,15.30
2023-05-15T12:32:22.259Z,8.00
2023-05-15T12:33:22.277Z,12.70
2023-05-15T12:34:22.259Z,9.60
2023-05-15T12:35:22.232Z,7.90
2023-05-15T12:36:22.262Z,10.30
2023-05-15T12:37:22.208Z,14.10
2023-05-15T12:38:22.214Z,9.40
2023-05-15T12:39:22.164Z,10.30
2023-05-15T12:40:23.303Z,8.50
2023-05-15T12:41:22.159Z,10.30
2023-05-15T12:42:22.239Z,9.00
2023-05-15T12:43:22.118Z,11.20
2023-05-15T12:44:22.170Z,8.50
2023-05-15T12:45:22.136Z,11.80
2023-05-15T12:46:22.179Z,10.20
2023-05-15T12:47:22.081Z,9.50
2023-05-15T12:48:22.135Z,9.60
2023-05-15T12:49:22.059Z,6.80
2023-05-15T12:50:22.079Z,6.30
2023-05-15T12:51:22.130Z,10.40
2023-05-15T12:52:22.114Z,8.30
2023-05-15T12:53:22.032Z,6.40
2023-05-15T12:54:22.078Z,7.30
2023-05-15T12:55:22.032Z,5.30
2023-05-15T12:56:22.000Z,8.20
2023-05-15T12:57:22.043Z,6.90
2023-05-15T12:58:21.971Z,7.00
2023-05-15T12:59:21.971Z,9.50
2023-05-15T13:00:21.952Z,5.70
2023-05-15T13:01:21.960Z,9.70
2023-05-15T13:02:23.367Z,10.30